Terminal Aerodrome Forecast
Issued by NWS Melbourne, FL

Home | Current Version | Previous Version | Text Only | Print | Product List | Glossary On
Versions: 1 2 3 4 5 6 7 8 9 10 11 12 13 14
000
FTUS42 KMLB 300908 AAA
TAFVRB
TAF AMD
KVRB 300908Z 3009/3106 12006KT P6SM VCSH SCT050 SCT070 BKN120
      TEMPO 3009/3012 VRB12G23KT 5SM SHRA FEW015 BKN025 BKN035
     FM301500 16011KT P6SM VCSH SCT025 BKN050 BKN250
     FM301800 16012KT P6SM VCTS SCT025CB BKN050 BKN150
     FM310000 16010KT P6SM VCSH FEW020 SCT050 BKN150=

USA.gov is the U.S. government's official web portal to all federal, state and local government web resources and services.